createdAt,value
2022-08-01T00:00:04.704Z,98171.16
2022-08-01T00:02:32.148Z,98189.81
2022-08-01T00:04:59.150Z,98193.66
2022-08-01T00:07:25.667Z,98190.41
2022-08-01T00:09:52.326Z,98183.97
2022-08-01T00:12:18.748Z,98197.22
2022-08-01T00:14:45.257Z,98186.66
2022-08-01T00:17:11.674Z,98200.06
2022-08-01T00:19:38.158Z,98195.94
2022-08-01T00:22:04.921Z,98169.34
2022-08-01T00:24:31.604Z,98185.72
2022-08-01T00:26:58.035Z,98200.81
2022-08-01T00:30:11.356Z,98181.66
2022-08-01T00:32:11.188Z,98193.09
2022-08-01T00:34:37.742Z,98189.97
2022-08-01T00:37:04.178Z,98197.91
2022-08-01T00:39:30.788Z,98189.72
2022-08-01T00:41:59.402Z,98199.66
2022-08-01T00:44:26.980Z,98200.09
2022-08-01T00:46:53.858Z,98198.38
2022-08-01T00:49:20.363Z,98199.69
2022-08-01T00:51:46.990Z,98193.03
2022-08-01T00:54:13.740Z,98186.81
2022-08-01T00:56:44.309Z,98189.34
2022-08-01T00:59:14.054Z,98192.44
2022-08-01T01:01:46.535Z,98175.69
2022-08-01T01:04:14.123Z,98184.44
2022-08-01T01:07:08.153Z,98162.84
2022-08-01T01:09:58.633Z,98181.81
2022-08-01T01:12:41.639Z,98184.13
2022-08-01T01:15:16.557Z,98163.56
2022-08-01T01:17:52.179Z,98189.56
2022-08-01T01:20:24.155Z,98189.50
2022-08-01T01:22:53.726Z,98193.03
2022-08-01T01:25:38.469Z,98188.91
2022-08-01T01:28:20.429Z,98183.41
2022-08-01T01:30:53.356Z,98193.59
2022-08-01T01:33:21.722Z,98191.28
2022-08-01T01:35:55.459Z,98191.13
2022-08-01T01:38:27.410Z,98172.28
2022-08-01T01:40:56.727Z,98184.66
2022-08-01T01:43:28.716Z,98192.75
2022-08-01T01:46:02.384Z,98195.00
2022-08-01T01:48:29.935Z,98198.81
2022-08-01T01:50:57.666Z,98174.16
2022-08-01T01:53:25.792Z,98195.00
2022-08-01T01:55:54.460Z,98206.84
2022-08-01T01:58:22.073Z,98200.06
2022-08-01T02:00:50.610Z,98183.09
2022-08-01T02:03:19.131Z,98200.28
2022-08-01T02:05:47.576Z,98166.41
2022-08-01T02:08:17.309Z,98205.88
2022-08-01T02:11:06.195Z,98201.63
2022-08-01T02:13:35.197Z,98198.47
2022-08-01T02:16:03.887Z,98201.59
2022-08-01T02:18:31.154Z,98200.34
2022-08-01T02:20:59.739Z,98197.63
2022-08-01T02:23:33.487Z,98197.47
2022-08-01T02:26:09.846Z,98165.97
2022-08-01T02:29:06.712Z,98204.56
2022-08-01T02:31:39.534Z,98204.09
2022-08-01T02:34:10.371Z,98200.75
2022-08-01T02:36:38.535Z,98201.53
2022-08-01T02:39:10.039Z,98205.13
2022-08-01T02:41:40.976Z,98195.16
2022-08-01T02:44:10.202Z,98209.72
2022-08-01T02:46:57.412Z,98203.59
2022-08-01T02:49:27.133Z,98195.16
2022-08-01T02:51:55.674Z,98202.19
2022-08-01T02:54:23.751Z,98203.91
2022-08-01T02:56:52.303Z,98199.78
2022-08-01T02:59:22.419Z,98200.25
2022-08-01T03:01:51.136Z,98196.84
2022-08-01T03:04:19.705Z,98101.53
2022-08-01T03:06:47.930Z,98206.66
2022-08-01T03:09:16.670Z,98208.00
2022-08-01T03:11:45.153Z,98215.44
2022-08-01T03:14:12.973Z,98211.91
2022-08-01T03:16:42.916Z,98215.47
2022-08-01T03:19:11.944Z,98199.25
2022-08-01T03:21:42.367Z,98214.91
2022-08-01T03:24:11.042Z,98217.34
2022-08-01T03:26:39.617Z,98217.84
2022-08-01T03:29:10.746Z,98226.75
2022-08-01T03:31:39.183Z,98228.13
2022-08-01T03:34:06.830Z,98211.91
2022-08-01T03:36:38.367Z,98208.38
2022-08-01T03:39:09.318Z,98231.59
2022-08-01T03:41:41.789Z,98222.72
2022-08-01T03:44:16.209Z,98220.28
2022-08-01T03:46:54.887Z,98229.47
2022-08-01T03:49:26.735Z,98229.19
2022-08-01T03:51:54.358Z,98231.66
2022-08-01T03:54:28.104Z,98224.09
2022-08-01T03:56:55.562Z,98220.88
2022-08-01T03:59:22.880Z,98229.25
2022-08-01T04:01:50.182Z,98234.13
2022-08-01T04:04:17.130Z,98229.81
2022-08-01T04:06:45.806Z,98231.69
2022-08-01T04:09:15.729Z,98224.91
2022-08-01T04:11:42.580Z,98214.94
2022-08-01T04:14:09.552Z,98233.84
2022-08-01T04:16:36.289Z,98236.25
2022-08-01T04:19:03.589Z,98239.53
2022-08-01T04:21:33.396Z,98224.66
2022-08-01T04:24:06.296Z,98242.47
2022-08-01T04:26:35.253Z,98234.66
2022-08-01T04:29:03.577Z,98244.34
2022-08-01T04:31:31.589Z,98247.81
2022-08-01T04:34:02.910Z,98243.44
2022-08-01T04:36:31.936Z,98252.63
2022-08-01T04:39:01.067Z,98237.75
2022-08-01T04:41:28.000Z,98252.81
2022-08-01T04:43:55.986Z,98251.44
2022-08-01T04:46:23.545Z,98260.06
2022-08-01T04:48:51.059Z,98263.25
2022-08-01T04:51:18.705Z,98260.66
2022-08-01T04:53:46.734Z,98270.13
2022-08-01T04:56:14.240Z,98266.44
2022-08-01T04:58:42.089Z,98264.50
2022-08-01T05:01:09.348Z,98274.78
2022-08-01T05:03:38.966Z,98265.66
2022-08-01T05:06:06.617Z,98275.34
2022-08-01T05:08:33.052Z,98278.38
2022-08-01T05:10:59.722Z,98273.78
2022-08-01T05:13:26.606Z,98263.25
2022-08-01T05:15:53.570Z,98265.16
2022-08-01T05:18:27.882Z,98271.63
2022-08-01T05:20:55.038Z,98266.69
2022-08-01T05:23:24.878Z,98265.00
2022-08-01T05:26:08.916Z,98229.03
2022-08-01T05:28:36.118Z,98276.41
2022-08-01T05:31:03.846Z,98264.75
2022-08-01T05:33:30.351Z,98265.34
2022-08-01T05:35:56.787Z,98271.56
2022-08-01T05:38:23.389Z,98267.41
2022-08-01T05:40:49.947Z,98273.16
2022-08-01T05:43:16.448Z,98269.31
2022-08-01T05:45:42.852Z,98270.81
2022-08-01T05:48:09.300Z,98265.91
2022-08-01T05:50:35.811Z,98268.38
2022-08-01T05:53:02.395Z,98268.00
2022-08-01T05:55:29.034Z,98248.41
2022-08-01T05:57:56.739Z,98262.25
2022-08-01T06:00:23.356Z,98263.47
2022-08-01T06:02:49.808Z,98262.69
2022-08-01T06:05:16.796Z,98254.81
2022-08-01T06:07:43.415Z,98257.59
2022-08-01T06:10:10.530Z,98255.97
2022-08-01T06:12:37.613Z,98267.38
2022-08-01T06:15:07.497Z,98268.78
2022-08-01T06:17:34.273Z,98252.22
2022-08-01T06:20:00.762Z,98264.78
2022-08-01T06:22:27.628Z,98270.91
2022-08-01T06:24:54.506Z,98273.44
2022-08-01T06:27:21.600Z,98271.38
2022-08-01T06:29:50.437Z,98276.91
2022-08-01T06:32:26.199Z,98270.94
2022-08-01T06:34:53.917Z,98280.19
2022-08-01T06:37:20.774Z,98276.84
2022-08-01T06:39:47.657Z,98277.97
2022-08-01T06:42:15.767Z,98271.63
2022-08-01T06:44:42.353Z,98279.78
2022-08-01T06:47:08.865Z,98281.16
2022-08-01T06:49:35.883Z,98281.50
2022-08-01T06:52:02.521Z,98281.22
2022-08-01T06:54:29.036Z,98287.78
2022-08-01T06:56:55.492Z,98238.00
2022-08-01T06:59:22.063Z,98286.94
2022-08-01T07:01:48.530Z,98282.25
2022-08-01T07:04:15.021Z,98279.00
2022-08-01T07:06:41.446Z,98278.13
2022-08-01T07:09:12.252Z,98271.22
2022-08-01T07:11:40.840Z,98270.59
2022-08-01T07:14:07.305Z,98268.53
2022-08-01T07:16:33.900Z,98261.13
2022-08-01T07:19:00.423Z,98263.66
2022-08-01T07:21:40.369Z,98265.84
2022-08-01T07:24:14.539Z,98265.59
2022-08-01T07:26:54.087Z,98261.50
2022-08-01T07:29:27.476Z,98242.75
2022-08-01T07:31:55.814Z,98256.72
2022-08-01T07:34:23.689Z,98255.78
2022-08-01T07:36:50.379Z,98250.88
2022-08-01T07:39:17.074Z,98254.31
2022-08-01T07:41:53.195Z,98252.38
2022-08-01T07:44:30.047Z,98252.84
2022-08-01T07:46:56.612Z,98250.34
2022-08-01T07:49:23.122Z,98251.84
2022-08-01T07:52:13.581Z,98255.56
2022-08-01T07:54:36.794Z,98259.16
2022-08-01T07:57:04.152Z,98257.94
2022-08-01T07:59:31.282Z,98240.94
2022-08-01T08:01:58.007Z,98247.38
2022-08-01T08:04:24.573Z,98248.53
2022-08-01T08:06:51.074Z,98252.97
2022-08-01T08:09:17.872Z,98257.22
2022-08-01T08:11:47.844Z,98252.88
2022-08-01T08:14:18.261Z,98269.38
2022-08-01T08:16:44.901Z,98262.63
2022-08-01T08:19:12.329Z,98257.75
2022-08-01T08:21:39.139Z,98261.16
2022-08-01T08:24:26.960Z,98260.72
2022-08-01T08:26:56.983Z,98203.44
2022-08-01T08:29:24.155Z,98258.41
2022-08-01T08:31:52.987Z,98258.53
2022-08-01T08:34:20.386Z,98211.66
2022-08-01T08:36:48.230Z,98259.03
2022-08-01T08:39:16.548Z,98252.19
2022-08-01T08:41:46.063Z,98253.22
2022-08-01T08:44:17.258Z,98250.50
2022-08-01T08:46:49.711Z,98254.22
2022-08-01T08:49:19.780Z,98253.31
2022-08-01T08:51:49.888Z,98234.78
2022-08-01T08:54:17.409Z,98242.91
2022-08-01T08:56:45.322Z,98247.97
2022-08-01T08:59:16.483Z,98236.13
2022-08-01T09:01:43.786Z,98229.19
2022-08-01T09:04:11.198Z,98243.31
2022-08-01T09:06:38.489Z,98243.16
2022-08-01T09:09:06.744Z,98234.09
2022-08-01T09:11:34.905Z,98231.72
2022-08-01T09:14:07.558Z,98230.16
2022-08-01T09:16:35.917Z,98235.69
2022-08-01T09:19:16.377Z,98241.16
2022-08-01T09:22:04.432Z,98241.78
2022-08-01T09:24:32.696Z,98248.28
2022-08-01T09:26:59.915Z,98243.25
2022-08-01T09:29:38.338Z,98241.06
2022-08-01T09:32:08.561Z,98249.38
2022-08-01T09:34:42.725Z,98258.22
2022-08-01T09:37:10.607Z,98255.47
2022-08-01T09:39:41.145Z,98263.38
2022-08-01T09:42:28.672Z,98264.16
2022-08-01T09:44:56.283Z,98268.22
2022-08-01T09:47:23.620Z,98267.16
2022-08-01T09:49:56.361Z,98268.63
2022-08-01T09:52:29.111Z,98262.19
2022-08-01T09:55:04.008Z,98259.75
2022-08-01T09:57:31.097Z,98261.09
2022-08-01T10:00:02.238Z,98255.66
2022-08-01T10:02:41.025Z,98263.75
2022-08-01T10:05:10.207Z,98272.03
2022-08-01T10:07:55.375Z,98271.84
2022-08-01T10:10:28.670Z,98272.16
2022-08-01T10:12:57.846Z,98211.09
2022-08-01T10:15:37.334Z,98270.31
2022-08-01T10:18:16.494Z,98268.38
2022-08-01T10:20:53.000Z,98266.22
2022-08-01T10:23:40.722Z,98269.13
2022-08-01T10:26:09.285Z,98261.34
2022-08-01T10:28:39.295Z,98263.56
2022-08-01T10:31:14.415Z,98264.00
2022-08-01T10:33:51.865Z,98262.53
2022-08-01T10:36:25.423Z,98256.59
2022-08-01T10:38:53.615Z,98257.53
2022-08-01T10:41:21.887Z,98257.09
2022-08-01T10:43:48.626Z,98257.63
2022-08-01T10:46:18.397Z,98252.50
2022-08-01T10:49:01.834Z,98257.09
2022-08-01T10:51:52.255Z,98255.38
2022-08-01T10:54:15.548Z,98252.25
2022-08-01T10:56:48.684Z,98246.44
2022-08-01T10:59:50.224Z,98257.41
2022-08-01T11:02:09.077Z,98248.00
2022-08-01T11:04:55.033Z,98244.16
2022-08-01T11:07:45.617Z,98238.66
2022-08-01T11:10:35.061Z,98232.22
2022-08-01T11:13:04.420Z,98236.47
2022-08-01T11:15:31.641Z,98238.94
2022-08-01T11:18:00.922Z,98240.31
2022-08-01T11:20:34.197Z,98229.25
2022-08-01T11:23:05.966Z,98232.66
2022-08-01T11:26:03.031Z,98223.66
2022-08-01T11:28:30.189Z,98229.19
2022-08-01T11:31:07.841Z,98221.00
2022-08-01T11:33:41.213Z,98229.00
2022-08-01T11:36:14.508Z,98219.75
2022-08-01T11:38:46.929Z,98234.69
2022-08-01T11:41:14.453Z,98225.31
2022-08-01T11:44:00.530Z,98218.84
2022-08-01T11:46:57.792Z,98225.72
2022-08-01T11:49:33.794Z,98232.47
2022-08-01T11:52:04.224Z,98221.66
2022-08-01T11:54:38.128Z,98212.38
2022-08-01T11:57:07.396Z,98216.75
2022-08-01T12:00:03.632Z,98216.25
2022-08-01T12:02:38.723Z,98212.38
2022-08-01T12:05:12.082Z,98219.78
2022-08-01T12:07:42.176Z,98211.28
2022-08-01T12:10:14.184Z,98206.13
2022-08-01T12:12:46.342Z,98155.22
2022-08-01T12:15:13.975Z,98204.97
2022-08-01T12:17:58.459Z,98206.25
2022-08-01T12:20:32.103Z,98201.34
2022-08-01T12:23:02.008Z,98199.28
2022-08-01T12:25:28.857Z,98203.63
2022-08-01T12:27:56.832Z,98201.34
2022-08-01T12:30:25.266Z,98199.19
2022-08-01T12:32:54.564Z,98202.94
2022-08-01T12:35:24.244Z,98207.53
2022-08-01T12:37:56.383Z,98201.34
2022-08-01T12:40:36.685Z,98194.16
2022-08-01T12:43:07.139Z,98202.47
2022-08-01T12:45:40.616Z,98203.84
2022-08-01T12:48:21.468Z,98199.25
2022-08-01T12:50:50.715Z,98206.78
2022-08-01T12:53:19.468Z,98191.66
2022-08-01T12:55:58.551Z,98197.28
2022-08-01T12:58:32.277Z,98193.25
2022-08-01T13:01:10.157Z,98201.97
2022-08-01T13:03:37.171Z,98195.66
2022-08-01T13:06:13.254Z,98181.34
2022-08-01T13:08:39.911Z,98190.38
2022-08-01T13:11:15.335Z,98187.47
2022-08-01T13:13:50.598Z,98190.75
2022-08-01T13:16:31.213Z,98192.34
2022-08-01T13:19:07.122Z,98189.13
2022-08-01T13:21:54.197Z,98187.66
2022-08-01T13:24:29.399Z,98192.34
2022-08-01T13:27:04.949Z,98189.50
2022-08-01T13:29:40.943Z,98194.25
2022-08-01T13:32:29.702Z,98185.50
2022-08-01T13:35:08.564Z,98190.56
2022-08-01T13:37:37.073Z,98184.06
2022-08-01T13:40:05.343Z,98193.47
2022-08-01T13:42:32.835Z,98184.41
2022-08-01T13:44:59.248Z,98191.41
2022-08-01T13:47:31.721Z,98193.03
2022-08-01T13:50:03.589Z,98191.25
2022-08-01T13:52:31.599Z,98138.75
2022-08-01T13:54:58.628Z,98191.13
2022-08-01T13:57:25.078Z,98190.56
2022-08-01T13:59:52.473Z,98185.78
2022-08-01T14:02:20.544Z,98187.94
2022-08-01T14:04:47.469Z,98181.66
2022-08-01T14:07:15.066Z,98179.78
2022-08-01T14:10:04.572Z,98188.63
2022-08-01T14:12:29.793Z,98180.28
2022-08-01T14:14:57.253Z,98176.41
2022-08-01T14:17:23.980Z,98181.25
2022-08-01T14:19:50.476Z,98189.25
2022-08-01T14:22:17.059Z,98190.59
2022-08-01T14:24:43.487Z,98197.13
2022-08-01T14:27:11.078Z,98188.47
2022-08-01T14:30:01.198Z,98188.56
2022-08-01T14:32:28.587Z,98190.28
2022-08-01T14:34:55.763Z,98192.34
2022-08-01T14:37:22.307Z,98197.00
2022-08-01T14:39:56.143Z,98190.50
2022-08-01T14:42:22.717Z,98200.69
2022-08-01T14:44:49.799Z,98187.91
2022-08-01T14:47:22.074Z,98193.47
2022-08-01T14:49:49.820Z,98186.28
2022-08-01T14:52:16.673Z,98154.25
2022-08-01T14:54:43.310Z,98191.53
2022-08-01T14:57:09.880Z,98170.94
2022-08-01T14:59:36.854Z,98195.84
2022-08-01T15:02:04.100Z,98188.88
2022-08-01T15:04:31.428Z,98189.34
2022-08-01T15:06:57.975Z,98201.09
2022-08-01T15:09:24.387Z,98194.00
2022-08-01T15:11:50.863Z,98186.91
2022-08-01T15:14:36.146Z,98192.16
2022-08-01T15:17:02.808Z,98189.44
2022-08-01T15:19:29.518Z,98190.00
2022-08-01T15:21:55.954Z,98187.28
2022-08-01T15:24:22.426Z,98188.88
2022-08-01T15:26:48.936Z,98188.75
2022-08-01T15:29:16.723Z,98191.59
2022-08-01T15:31:44.773Z,98196.94
2022-08-01T15:34:11.770Z,98195.66
2022-08-01T15:36:38.230Z,98198.38
2022-08-01T15:39:09.680Z,98196.53
2022-08-01T15:41:36.124Z,98197.69
2022-08-01T15:44:02.712Z,98186.94
2022-08-01T15:46:29.521Z,98197.09
2022-08-01T15:48:56.096Z,98200.06
2022-08-01T15:51:23.729Z,98197.34
2022-08-01T15:53:50.139Z,98188.25
2022-08-01T15:56:16.568Z,98181.34
2022-08-01T15:58:43.184Z,98191.41
2022-08-01T16:01:09.685Z,98190.78
2022-08-01T16:03:36.105Z,98194.75
2022-08-01T16:06:02.671Z,98185.09
2022-08-01T16:08:29.122Z,98193.66
2022-08-01T16:10:55.647Z,98186.25
2022-08-01T16:13:22.154Z,98189.81
2022-08-01T16:15:48.613Z,98186.00
2022-08-01T16:18:16.022Z,98186.19
2022-08-01T16:20:45.710Z,98198.72
2022-08-01T16:23:13.937Z,98195.41
2022-08-01T16:25:40.754Z,98197.34
2022-08-01T16:28:07.322Z,98199.00
2022-08-01T16:30:33.931Z,98199.00
2022-08-01T16:33:04.810Z,98197.88
2022-08-01T16:35:36.446Z,98189.91
2022-08-01T16:38:04.690Z,98187.31
2022-08-01T16:40:31.726Z,98179.91
2022-08-01T16:43:16.391Z,98179.81
2022-08-01T16:45:43.371Z,98164.56
2022-08-01T16:48:12.368Z,98175.66
2022-08-01T16:50:39.404Z,98175.31
2022-08-01T16:53:05.876Z,98174.25
2022-08-01T16:55:49.631Z,98176.34
2022-08-01T16:58:27.829Z,98174.59
2022-08-01T17:01:53.522Z,98175.03
2022-08-01T17:03:52.430Z,98172.59
2022-08-01T17:06:22.403Z,98177.59
2022-08-01T17:08:49.847Z,98174.72
2022-08-01T17:11:16.706Z,98177.69
2022-08-01T17:13:43.690Z,98186.19
2022-08-01T17:16:11.083Z,98178.97
2022-08-01T17:18:37.792Z,98182.34
2022-08-01T17:21:04.237Z,98182.97
2022-08-01T17:23:31.746Z,98176.34
2022-08-01T17:25:58.849Z,98186.34
2022-08-01T17:28:26.087Z,98180.69
2022-08-01T17:30:52.531Z,98176.34
2022-08-01T17:33:20.556Z,98180.69
2022-08-01T17:35:47.121Z,98186.34
2022-08-01T17:38:13.608Z,98182.00
2022-08-01T17:40:41.116Z,98174.75
2022-08-01T17:43:08.495Z,98168.47
2022-08-01T17:45:39.389Z,98162.72
2022-08-01T17:48:17.803Z,98186.03
2022-08-01T17:50:45.316Z,98162.78
2022-08-01T17:53:12.864Z,98184.63
2022-08-01T17:55:56.079Z,98187.34
2022-08-01T17:58:51.346Z,98184.94
2022-08-01T18:01:16.134Z,98181.75
2022-08-01T18:03:43.453Z,98191.22
2022-08-01T18:06:13.611Z,98194.44
2022-08-01T18:08:41.818Z,98196.19
2022-08-01T18:11:09.254Z,98203.94
2022-08-01T18:13:36.539Z,98203.00
2022-08-01T18:16:08.817Z,98194.81
2022-08-01T18:18:35.571Z,98190.03
2022-08-01T18:21:02.961Z,98196.25
2022-08-01T18:23:29.655Z,98191.66
2022-08-01T18:25:56.219Z,98209.47
2022-08-01T18:28:33.761Z,98195.03
2022-08-01T18:31:03.650Z,98206.44
2022-08-01T18:33:30.312Z,98199.84
2022-08-01T18:36:01.871Z,98217.72
2022-08-01T18:38:32.805Z,98212.25
2022-08-01T18:41:00.958Z,98213.84
2022-08-01T18:43:28.110Z,98191.66
2022-08-01T18:45:57.111Z,98213.81
2022-08-01T18:48:24.423Z,98160.19
2022-08-01T18:50:50.962Z,98217.22
2022-08-01T18:53:18.635Z,98221.56
2022-08-01T18:55:45.268Z,98224.16
2022-08-01T18:58:11.790Z,98224.44
2022-08-01T19:00:39.678Z,98237.97
2022-08-01T19:03:06.310Z,98230.19
2022-08-01T19:05:34.872Z,98242.88
2022-08-01T19:08:06.194Z,98236.28
2022-08-01T19:10:39.181Z,98233.47
2022-08-01T19:13:06.236Z,98240.44
2022-08-01T19:15:32.744Z,98245.50
2022-08-01T19:17:59.907Z,98239.75
2022-08-01T19:20:28.068Z,98243.63
2022-08-01T19:22:55.335Z,98231.91
2022-08-01T19:25:22.617Z,98251.22
2022-08-01T19:27:50.395Z,98264.44
2022-08-01T19:30:18.727Z,98265.53
2022-08-01T19:32:46.919Z,98269.47
2022-08-01T19:35:16.599Z,98274.78
2022-08-01T19:37:46.890Z,98275.53
2022-08-01T19:40:26.256Z,98276.41
2022-08-01T19:42:55.754Z,98277.41
2022-08-01T19:45:22.565Z,98288.28
2022-08-01T19:47:56.198Z,98284.28
2022-08-01T19:50:28.607Z,98293.16
2022-08-01T19:53:03.109Z,98294.13
2022-08-01T19:55:39.277Z,98296.19
2022-08-01T19:58:26.409Z,98300.13
2022-08-01T20:00:54.530Z,98297.28
2022-08-01T20:03:22.325Z,98297.19
2022-08-01T20:05:50.599Z,98299.59
2022-08-01T20:08:20.661Z,98303.22
2022-08-01T20:10:48.358Z,98303.81
2022-08-01T20:13:16.029Z,98305.38
2022-08-01T20:15:43.156Z,98305.44
2022-08-01T20:18:09.905Z,98308.28
2022-08-01T20:20:38.031Z,98288.09
2022-08-01T20:23:10.552Z,98319.66
2022-08-01T20:25:48.186Z,98321.88
2022-08-01T20:28:15.979Z,98315.13
2022-08-01T20:30:43.826Z,98308.25
2022-08-01T20:33:12.154Z,98267.78
2022-08-01T20:35:52.382Z,98323.28
2022-08-01T20:38:27.643Z,98320.59
2022-08-01T20:40:58.795Z,98324.47
2022-08-01T20:43:27.410Z,98333.06
2022-08-01T20:45:55.675Z,98313.22
2022-08-01T20:48:25.710Z,98303.81
2022-08-01T20:51:11.254Z,98309.06
2022-08-01T20:53:41.939Z,98334.00
2022-08-01T20:56:20.719Z,98340.28
2022-08-01T20:59:55.379Z,98281.41
2022-08-01T21:02:09.381Z,98335.75
2022-08-01T21:04:57.029Z,98344.28
2022-08-01T21:07:38.417Z,98348.91
2022-08-01T21:10:08.329Z,98349.13
2022-08-01T21:13:00.794Z,98341.78
2022-08-01T21:16:04.167Z,98348.41
2022-08-01T21:18:37.862Z,98352.31
2022-08-01T21:21:17.386Z,98342.19
2022-08-01T21:24:00.391Z,98331.06
2022-08-01T21:26:27.154Z,98348.09
2022-08-01T21:28:55.824Z,98349.41
2022-08-01T21:31:25.002Z,98357.06
2022-08-01T21:34:02.789Z,98348.19
2022-08-01T21:36:30.971Z,98351.09
2022-08-01T21:38:58.620Z,98330.59
2022-08-01T21:41:56.765Z,98347.69
2022-08-01T21:44:16.015Z,98354.44
2022-08-01T21:46:43.071Z,98344.88
2022-08-01T21:49:10.291Z,98357.00
2022-08-01T21:51:51.927Z,98350.69
2022-08-01T21:54:34.753Z,98350.75
2022-08-01T21:57:15.725Z,98354.34
2022-08-01T22:00:02.655Z,98349.81
2022-08-01T22:03:00.358Z,98361.94
2022-08-01T22:05:49.682Z,98363.59
2022-08-01T22:08:23.768Z,98365.59
2022-08-01T22:10:57.696Z,98375.38
2022-08-01T22:13:24.342Z,98372.78
2022-08-01T22:15:52.195Z,98383.72
2022-08-01T22:18:19.025Z,98388.66
2022-08-01T22:20:47.180Z,98388.56
2022-08-01T22:23:14.468Z,98371.03
2022-08-01T22:25:41.607Z,98379.44
2022-08-01T22:28:10.212Z,98368.81
2022-08-01T22:30:41.902Z,98386.16
2022-08-01T22:33:17.022Z,98389.47
2022-08-01T22:35:46.608Z,98383.59
2022-08-01T22:38:13.256Z,98361.25
2022-08-01T22:40:49.393Z,98383.06
2022-08-01T22:43:25.155Z,98386.34
2022-08-01T22:46:07.203Z,98380.41
2022-08-01T22:48:44.794Z,98382.25
2022-08-01T22:51:55.154Z,98386.38
2022-08-01T22:54:34.031Z,98394.34
2022-08-01T22:57:07.180Z,98386.06
2022-08-01T22:59:46.046Z,98383.09
2022-08-01T23:02:16.606Z,98377.66
2022-08-01T23:04:46.314Z,98367.94
2022-08-01T23:07:19.313Z,98386.88
2022-08-01T23:09:54.334Z,98385.75
2022-08-01T23:12:23.914Z,98389.59
2022-08-01T23:14:53.606Z,98379.72
2022-08-01T23:17:27.688Z,98394.88
2022-08-01T23:20:06.776Z,98387.59
2022-08-01T23:22:36.284Z,98396.78
2022-08-01T23:25:06.926Z,98389.50
2022-08-01T23:28:04.381Z,98388.75
2022-08-01T23:30:31.256Z,98392.53
2022-08-01T23:32:58.150Z,98391.16
2022-08-01T23:35:26.411Z,98384.91
2022-08-01T23:37:53.221Z,98384.91
2022-08-01T23:40:20.537Z,98384.69
2022-08-01T23:42:47.223Z,98386.88
2022-08-01T23:45:13.947Z,98372.84
2022-08-01T23:47:40.467Z,98383.91
2022-08-01T23:50:08.550Z,98389.09
2022-08-01T23:52:36.783Z,98383.69
2022-08-01T23:55:15.901Z,98391.78
2022-08-01T23:57:42.724Z,98389.09
